Time;durP1;ratioP1;P1;durP2;ratioP2;P2;SDS_P1;SDS_P2;PMS_P1;PMS_P2;Temp;Humidity;BMP_temperature;BMP_pressure;BME280_temperature;BME280_humidity;BME280_pressure;Samples;Min_cycle;Max_cycle;Signal;HPM_P1;HPM_P2
2022/09/25 00:02:04;;;;;;;;;;;;;;;12.21;86.25;101531.81;5049339;28;19920;-60
2022/09/25 00:04:30;;;;;;;;;;;;;;;12.20;86.08;101530.16;5050424;28;19924;-61
2022/09/25 00:06:55;;;;;;;;;;;;;;;12.19;86.22;101533.81;5042764;28;19947;-59
2022/09/25 00:09:22;;;;;;;;;;;;;;;12.17;86.30;101543.81;5046450;28;20024;-60
2022/09/25 00:11:47;;;;;;;;;;;;;;;12.15;86.00;101543.13;5046915;28;19917;-60
2022/09/25 00:14:12;;;;;;;;;;;;;;;12.12;86.13;101541.59;5044289;28;19982;-60
2022/09/25 00:16:37;;;;;;;;;;;;;;;12.11;86.30;101542.59;5049267;28;19927;-60
2022/09/25 00:21:50;;;;;;;;;;;;;;;12.07;85.94;101547.41;5042581;28;19924;-59
2022/09/25 00:24:16;;;;;;;;;;;;;;;12.06;86.22;101547.59;5044632;28;19924;-60
2022/09/25 00:26:41;;;;;;;;;;;;;;;12.05;86.07;101543.25;5040070;28;19917;-60
2022/09/25 00:29:07;;;;;;;;;;;;;;;12.03;85.98;101540.75;5042815;28;20326;-60
2022/09/25 00:31:32;;;;;;;;;;;;;;;12.01;85.91;101540.09;5037799;28;21209;-60
2022/09/25 00:33:59;;;;;;;;;;;;;;;11.98;85.82;101537.75;5043659;28;19917;-60
2022/09/25 00:36:24;;;;;;;;;;;;;;;11.98;85.75;101537.75;5045936;28;19971;-60
2022/09/25 00:38:50;;;;;;;;;;;;;;;11.98;85.94;101540.41;5046383;28;19916;-59
2022/09/25 00:41:16;;;;;;;;;;;;;;;11.97;85.92;101544.06;5046678;28;19924;-61
2022/09/25 00:43:43;;;;;;;;;;;;;;;11.95;86.03;101548.72;5047087;28;20584;-60
2022/09/25 00:46:17;;;;;;;;;;;;;;;11.94;85.98;101546.22;5048251;28;19945;-60
2022/09/25 00:48:47;;;;;;;;;;;;;;;11.91;85.83;101543.91;5049638;28;20320;-60
2022/09/25 00:51:13;;;;;;;;;;;;;;;11.83;86.10;101536.69;5046395;28;20372;-60
2022/09/25 00:53:39;;;;;;;;;;;;;;;11.87;85.78;101543.41;5045416;28;19921;-59
2022/09/25 00:56:06;;;;;;;;;;;;;;;11.85;85.79;101542.69;5042393;28;19943;-58
2022/09/25 00:58:34;;;;;;;;;;;;;;;11.84;86.14;101545.53;5044142;28;19975;-60
2022/09/25 01:00:59;;;;;;;;;;;;;;;11.81;85.96;101544.00;5048352;28;19917;-60
2022/09/25 01:03:25;;;;;;;;;;;;;;;11.79;85.78;101543.34;5047229;28;20395;-60
2022/09/25 01:05:50;;;;;;;;;;;;;;;11.77;85.87;101539.97;5043679;28;19969;-60
2022/09/25 01:08:18;;;;;;;;;;;;;;;11.76;85.89;101554.28;5046634;28;19924;-60
2022/09/25 01:10:43;;;;;;;;;;;;;;;11.72;85.97;101544.97;5044654;28;19917;-59
2022/09/25 01:13:10;;;;;;;;;;;;;;;11.70;85.91;101547.78;5046129;28;19916;-60
2022/09/25 01:15:39;;;;;;;;;;;;;;;11.68;86.05;101556.91;5045455;28;19927;-60
2022/09/25 01:18:11;;;;;;;;;;;;;;;11.65;86.03;101549.25;5036619;28;20253;-60
2022/09/25 01:20:58;;;;;;;;;;;;;;;11.62;85.79;101549.59;5043021;28;19966;-59
2022/09/25 01:23:32;;;;;;;;;;;;;;;11.59;85.80;101550.75;5041868;28;19917;-59
2022/09/25 01:26:16;;;;;;;;;;;;;;;11.55;85.93;101546.69;5042952;28;20001;-59
2022/09/25 01:28:54;;;;;;;;;;;;;;;11.53;85.71;101550.50;5045404;28;20513;-58
2022/09/25 01:31:33;;;;;;;;;;;;;;;11.48;85.85;101554.50;5043821;28;19927;-60
2022/09/25 01:34:01;;;;;;;;;;;;;;;11.45;85.91;101557.47;5045911;28;19999;-59
2022/09/25 01:36:28;;;;;;;;;;;;;;;11.43;85.98;101555.97;5046513;28;19924;-60
2022/09/25 01:39:12;;;;;;;;;;;;;;;11.38;85.87;101559.09;5045596;28;20549;-60
2022/09/25 01:41:37;;;;;;;;;;;;;;;11.36;86.03;101560.25;5044285;28;19921;-59
2022/09/25 01:44:08;;;;;;;;;;;;;;;11.32;85.97;101565.06;5039801;28;20010;-60
2022/09/25 01:46:36;;;;;;;;;;;;;;;11.30;85.82;101555.59;5040627;28;19916;-60
2022/09/25 01:49:05;;;;;;;;;;;;;;;11.26;85.68;101560.34;5043815;28;19956;-60
2022/09/25 01:51:33;;;;;;;;;;;;;;;11.23;85.57;101557.19;5040574;28;20315;-60
2022/09/25 01:54:02;;;;;;;;;;;;;;;11.20;85.55;101560.97;5041651;28;19916;-60
2022/09/25 01:56:31;;;;;;;;;;;;;;;11.17;85.82;101559.47;5042549;28;19932;-59
2022/09/25 01:59:00;;;;;;;;;;;;;;;11.12;85.74;101550.31;5044313;28;19928;-60
2022/09/25 02:01:27;;;;;;;;;;;;;;;11.07;85.60;101555.25;5044091;28;19920;-60
2022/09/25 02:03:56;;;;;;;;;;;;;;;11.04;85.72;101560.91;5043825;28;19932;-59
2022/09/25 02:06:22;;;;;;;;;;;;;;;10.97;85.72;101557.16;5040125;28;20532;-60
2022/09/25 02:08:54;;;;;;;;;;;;;;;10.94;85.41;101557.47;5044799;28;19944;-60
2022/09/25 02:11:19;;;;;;;;;;;;;;;10.91;85.85;101555.13;5056160;28;19920;-60
2022/09/25 02:13:48;;;;;;;;;;;;;;;10.89;85.56;101552.63;5041890;28;19928;-60
2022/09/25 02:16:16;;;;;;;;;;;;;;;10.84;85.54;101553.09;5043650;28;19917;-60
2022/09/25 02:21:44;;;;;;;;;;;;;;;10.70;85.69;101556.34;4972088;28;20420;-59
2022/09/25 02:24:20;;;;;;;;;;;;;;;10.62;85.16;101558.91;5041049;28;20307;-60
2022/09/25 02:26:46;;;;;;;;;;;;;;;10.54;85.55;101558.84;5040902;28;20790;-60
2022/09/25 02:29:12;;;;;;;;;;;;;;;10.45;85.29;101554.44;5042110;28;19925;-60
2022/09/25 02:31:43;;;;;;;;;;;;;;;10.36;85.46;101552.69;5038770;28;19920;-59
2022/09/25 02:34:09;;;;;;;;;;;;;;;10.29;85.19;101556.94;5043768;28;19916;-58
2022/09/25 02:36:34;;;;;;;;;;;;;;;10.20;85.29;101556.00;5046348;28;19943;-58
2022/09/25 02:39:01;;;;;;;;;;;;;;;10.15;85.14;101566.22;5041472;28;20284;-60
2022/09/25 02:41:38;;;;;;;;;;;;;;;10.09;85.15;101562.34;5042829;28;19921;-59
2022/09/25 02:44:09;;;;;;;;;;;;;;;10.02;85.25;101557.78;5042835;28;19923;-60
2022/09/25 02:46:37;;;;;;;;;;;;;;;9.97;85.63;101558.25;5042612;28;19967;-59
2022/09/25 02:49:08;;;;;;;;;;;;;;;9.97;85.64;101550.28;5042242;28;19928;-60
2022/09/25 02:51:39;;;;;;;;;;;;;;;9.98;85.57;101546.63;5041370;28;19963;-60
2022/09/25 02:54:23;;;;;;;;;;;;;;;9.99;85.71;101545.66;5041928;28;19917;-60
2022/09/25 02:56:54;;;;;;;;;;;;;;;10.00;85.70;101542.00;5043308;28;20338;-60
2022/09/25 02:59:32;;;;;;;;;;;;;;;10.02;85.75;101537.38;5043497;28;19924;-59
2022/09/25 03:01:57;;;;;;;;;;;;;;;10.03;86.06;101540.88;5043592;28;19923;-60
2022/09/25 03:04:25;;;;;;;;;;;;;;;10.02;86.12;101541.88;5041643;28;20011;-60
2022/09/25 03:06:50;;;;;;;;;;;;;;;10.00;86.13;101543.84;5043199;28;19947;-60
2022/09/25 03:09:16;;;;;;;;;;;;;;;9.95;86.00;101546.94;5042527;28;19984;-60
2022/09/25 03:11:42;;;;;;;;;;;;;;;9.89;86.15;101547.53;5043733;28;19924;-59
2022/09/25 03:14:08;;;;;;;;;;;;;;;9.84;86.07;101547.16;5041411;28;19921;-60
2022/09/25 03:16:33;;;;;;;;;;;;;;;9.77;85.75;101546.88;5040542;28;19924;-60
2022/09/25 03:18:58;;;;;;;;;;;;;;;9.72;85.85;101553.63;5043301;28;19924;-59
2022/09/25 03:21:23;;;;;;;;;;;;;;;9.65;85.74;101537.47;5044752;28;19921;-59
2022/09/25 03:23:49;;;;;;;;;;;;;;;9.59;86.11;101549.50;5039490;28;20299;-60
2022/09/25 03:26:14;;;;;;;;;;;;;;;9.53;85.86;101547.41;5037628;28;19928;-59
2022/09/25 03:28:39;;;;;;;;;;;;;;;9.46;86.19;101549.00;5036995;28;20346;-60
2022/09/25 03:31:05;;;;;;;;;;;;;;;9.42;86.25;101544.13;5050405;28;19917;-60
2022/09/25 03:33:35;;;;;;;;;;;;;;;9.36;86.15;101544.72;5049085;28;19970;-59
2022/09/25 03:36:09;;;;;;;;;;;;;;;9.34;86.43;101544.03;5051362;28;19920;-60
2022/09/25 03:38:35;;;;;;;;;;;;;;;9.29;86.29;101545.31;5052077;28;19962;-60
2022/09/25 03:41:01;;;;;;;;;;;;;;;9.26;86.65;101547.41;5051910;28;20343;-60
2022/09/25 03:43:26;;;;;;;;;;;;;;;9.21;86.53;101539.88;5044359;28;19920;-59
2022/09/25 03:45:51;;;;;;;;;;;;;;;9.14;86.48;101541.44;5049359;28;20372;-59
2022/09/25 03:48:16;;;;;;;;;;;;;;;9.04;86.64;101542.44;5047604;28;19916;-60
2022/09/25 03:50:42;;;;;;;;;;;;;;;8.98;86.93;101538.56;5052269;28;19917;-59
2022/09/25 03:53:07;;;;;;;;;;;;;;;8.94;87.14;101537.16;5052104;28;19913;-58
2022/09/25 03:55:32;;;;;;;;;;;;;;;8.93;87.37;101544.28;5053973;28;20497;-60
2022/09/25 03:57:57;;;;;;;;;;;;;;;8.89;87.60;101545.53;5048939;28;19986;-60
2022/09/25 04:00:23;;;;;;;;;;;;;;;8.84;86.98;101553.06;5039750;28;19940;-59
2022/09/25 04:02:48;;;;;;;;;;;;;;;8.83;87.26;101553.22;5049817;28;19917;-60
2022/09/25 04:05:13;;;;;;;;;;;;;;;8.82;87.62;101555.03;5052009;28;20361;-60
2022/09/25 04:07:39;;;;;;;;;;;;;;;8.83;87.60;101551.41;5051339;28;19921;-59
2022/09/25 04:10:04;;;;;;;;;;;;;;;8.84;87.48;101544.28;5043880;28;20288;-59
2022/09/25 04:12:29;;;;;;;;;;;;;;;8.84;87.84;101542.47;5049031;28;19970;-57
2022/09/25 04:14:55;;;;;;;;;;;;;;;8.86;87.89;101544.97;5051897;28;20577;-59
2022/09/25 04:17:20;;;;;;;;;;;;;;;8.86;87.66;101539.69;5044232;28;19928;-59
2022/09/25 04:19:46;;;;;;;;;;;;;;;8.87;88.06;101544.00;5045794;28;19955;-59
2022/09/25 04:22:11;;;;;;;;;;;;;;;8.87;87.76;101541.34;5045953;28;20008;-59
2022/09/25 04:24:48;;;;;;;;;;;;;;;8.84;87.87;101539.00;5043623;28;20176;-59
2022/09/25 04:27:16;;;;;;;;;;;;;;;8.83;87.95;101537.31;5046725;28;19917;-59
2022/09/25 04:29:41;;;;;;;;;;;;;;;8.83;88.08;101530.22;5048086;28;19917;-60
2022/09/25 04:35:10;;;;;;;;;;;;;;;8.83;88.55;101542.63;5020944;28;19917;-60
2022/09/25 04:37:35;;;;;;;;;;;;;;;8.82;88.31;101540.94;5021512;28;19921;-60
2022/09/25 04:40:00;;;;;;;;;;;;;;;8.79;88.45;101539.44;5037990;28;20284;-60
2022/09/25 04:42:25;;;;;;;;;;;;;;;8.75;88.36;101535.41;5046974;28;19931;-60
2022/09/25 04:44:52;;;;;;;;;;;;;;;8.73;88.65;101541.81;5052585;28;19916;-60
2022/09/25 04:47:17;;;;;;;;;;;;;;;8.69;88.36;101541.25;5047252;28;19920;-59
2022/09/25 04:49:42;;;;;;;;;;;;;;;8.65;88.71;101538.03;5048123;28;20036;-60
2022/09/25 04:52:07;;;;;;;;;;;;;;;8.63;88.72;101536.50;5042508;28;19921;-59
2022/09/25 04:54:33;;;;;;;;;;;;;;;8.61;88.88;101544.59;5041320;28;19917;-60
2022/09/25 04:56:58;;;;;;;;;;;;;;;8.59;88.55;101537.78;5043249;28;20011;-59
2022/09/25 04:59:23;;;;;;;;;;;;;;;8.58;88.60;101530.81;5045572;28;19937;-60
2022/09/25 05:01:48;;;;;;;;;;;;;;;8.57;89.04;101529.97;5043087;28;19999;-60
2022/09/25 05:04:14;;;;;;;;;;;;;;;8.59;88.74;101527.19;5044218;28;19917;-60
2022/09/25 05:06:40;;;;;;;;;;;;;;;8.58;88.94;101534.28;5045895;28;19927;-59
2022/09/25 05:09:05;;;;;;;;;;;;;;;8.57;89.37;101534.44;5043836;28;19925;-59
2022/09/25 05:11:30;;;;;;;;;;;;;;;8.51;88.96;101527.88;5043113;28;19924;-59
2022/09/25 05:13:55;;;;;;;;;;;;;;;8.45;89.19;101531.09;5049847;28;20514;-59
2022/09/25 05:16:20;;;;;;;;;;;;;;;8.38;88.75;101535.25;5044214;28;19963;-60
2022/09/25 05:18:46;;;;;;;;;;;;;;;8.30;88.84;101527.16;5046220;28;20311;-59
2022/09/25 05:21:11;;;;;;;;;;;;;;;8.20;88.72;101532.44;5047589;28;19936;-59
2022/09/25 05:23:36;;;;;;;;;;;;;;;8.18;88.76;101531.75;5043523;28;20307;-59
2022/09/25 05:26:01;;;;;;;;;;;;;;;8.15;88.91;101529.38;5037411;28;19944;-59
2022/09/25 05:28:27;;;;;;;;;;;;;;;8.14;89.25;101532.19;5043041;28;19960;-59
2022/09/25 05:30:52;;;;;;;;;;;;;;;8.11;89.22;101527.16;5042998;28;19924;-59
2022/09/25 05:33:18;;;;;;;;;;;;;;;8.10;89.10;101517.56;5041960;28;19924;-59
2022/09/25 05:35:43;;;;;;;;;;;;;;;8.11;89.03;101528.00;5042563;28;19921;-59
2022/09/25 05:38:08;;;;;;;;;;;;;;;8.11;89.55;101525.34;5037734;28;20450;-60
2022/09/25 05:40:33;;;;;;;;;;;;;;;8.14;89.68;101524.25;5040871;28;19917;-60
2022/09/25 05:43:00;;;;;;;;;;;;;;;8.17;89.48;101521.31;5042495;28;19917;-59
2022/09/25 05:45:26;;;;;;;;;;;;;;;8.20;89.37;101521.88;5041038;28;19931;-60
2022/09/25 05:48:04;;;;;;;;;;;;;;;8.23;89.33;101521.59;5039788;28;19928;-59
2022/09/25 05:50:31;;;;;;;;;;;;;;;8.29;89.52;101525.47;5046295;28;20356;-59
2022/09/25 05:52:56;;;;;;;;;;;;;;;8.34;89.36;101534.72;5045627;28;19928;-59
2022/09/25 05:55:22;;;;;;;;;;;;;;;8.41;89.36;101539.47;5046056;28;19917;-60
2022/09/25 05:57:47;;;;;;;;;;;;;;;8.46;89.21;101539.88;5050675;28;19985;-59
2022/09/25 06:00:12;;;;;;;;;;;;;;;8.51;89.61;101538.47;5045679;28;20430;-59
2022/09/25 06:02:38;;;;;;;;;;;;;;;8.54;89.60;101542.66;5046653;28;19917;-59
2022/09/25 06:05:03;;;;;;;;;;;;;;;8.50;89.76;101543.91;5038323;28;19921;-59
2022/09/25 06:07:28;;;;;;;;;;;;;;;8.38;89.21;101545.84;5042665;28;19917;-59
2022/09/25 06:09:53;;;;;;;;;;;;;;;8.23;89.16;101545.41;5046789;28;19917;-59
2022/09/25 06:12:19;;;;;;;;;;;;;;;8.19;89.51;101546.66;5041894;28;19921;-59
2022/09/25 06:14:44;;;;;;;;;;;;;;;8.19;89.48;101545.81;5044831;28;19925;-58
2022/09/25 06:17:10;;;;;;;;;;;;;;;8.20;90.07;101536.91;5047281;28;21813;-59
2022/09/25 06:19:36;;;;;;;;;;;;;;;8.23;90.26;101544.56;5043951;28;19920;-59
2022/09/25 06:22:01;;;;;;;;;;;;;;;8.26;90.29;101547.78;5042273;28;19923;-59
2022/09/25 06:24:26;;;;;;;;;;;;;;;8.32;90.55;101551.66;5045190;28;19925;-59
2022/09/25 06:26:51;;;;;;;;;;;;;;;8.37;90.55;101539.72;5040246;28;19971;-59
2022/09/25 06:29:16;;;;;;;;;;;;;;;8.42;90.40;101544.63;5041013;28;19936;-59
2022/09/25 06:31:42;;;;;;;;;;;;;;;8.48;90.87;101549.34;5042260;28;19995;-59
2022/09/25 06:34:08;;;;;;;;;;;;;;;8.54;91.13;101543.50;5044136;28;19967;-58
2022/09/25 06:36:33;;;;;;;;;;;;;;;8.61;91.10;101551.69;5039775;28;19921;-59
2022/09/25 06:38:58;;;;;;;;;;;;;;;8.67;91.45;101553.78;5047184;28;19917;-59
2022/09/25 06:41:23;;;;;;;;;;;;;;;8.72;91.21;101548.09;5046742;28;20003;-57
2022/09/25 06:43:49;;;;;;;;;;;;;;;8.74;91.28;101544.31;5046739;28;19924;-59
2022/09/25 06:46:14;;;;;;;;;;;;;;;8.78;91.29;101544.88;5040171;28;19920;-59
2022/09/25 06:48:40;;;;;;;;;;;;;;;8.82;91.72;101539.13;5048720;28;20403;-59
2022/09/25 06:51:07;;;;;;;;;;;;;;;8.87;91.86;101536.06;5048668;28;20392;-59
2022/09/25 06:53:32;;;;;;;;;;;;;;;8.91;91.66;101543.56;5047218;28;19928;-59
2022/09/25 06:56:01;;;;;;;;;;;;;;;8.97;91.80;101547.50;5041704;28;20303;-59
2022/09/25 06:58:27;;;;;;;;;;;;;;;9.02;91.97;101547.91;5047149;28;19920;-59
2022/09/25 07:00:53;;;;;;;;;;;;;;;9.11;91.77;101554.13;5048439;28;20422;-59
2022/09/25 07:06:04;;;;;;;;;;;;;;;9.26;91.94;101556.19;5047536;28;19924;-57
2022/09/25 07:08:29;;;;;;;;;;;;;;;9.36;91.86;101563.28;5043410;28;19917;-57
2022/09/25 07:10:55;;;;;;;;;;;;;;;9.46;92.17;101564.06;5042128;28;19920;-59
2022/09/25 07:13:23;;;;;;;;;;;;;;;9.59;92.08;101565.41;5039294;28;19960;-60
2022/09/25 07:15:54;;;;;;;;;;;;;;;9.72;92.08;101562.41;5044317;28;19959;-59
2022/09/25 07:18:23;;;;;;;;;;;;;;;9.79;92.30;101560.84;5045428;28;19943;-59
2022/09/25 07:20:48;;;;;;;;;;;;;;;9.89;92.14;101564.28;5048746;28;19912;-59
2022/09/25 07:23:14;;;;;;;;;;;;;;;9.99;92.23;101569.53;5045432;28;20059;-59
2022/09/25 07:25:39;;;;;;;;;;;;;;;10.09;92.22;101565.00;5042190;28;20291;-59
2022/09/25 07:28:06;;;;;;;;;;;;;;;10.19;92.34;101562.28;5043060;28;19917;-59
2022/09/25 07:30:31;;;;;;;;;;;;;;;10.29;92.43;101560.44;5042408;28;19917;-59
2022/09/25 07:32:57;;;;;;;;;;;;;;;10.37;92.71;101565.81;5037705;28;19999;-59
2022/09/25 07:35:22;;;;;;;;;;;;;;;10.46;92.12;101564.09;5034725;28;20016;-59
2022/09/25 07:37:47;;;;;;;;;;;;;;;10.56;92.59;101564.81;5043332;28;19913;-59
2022/09/25 07:40:13;;;;;;;;;;;;;;;10.64;92.33;101562.22;5044646;28;19916;-59
2022/09/25 07:42:38;;;;;;;;;;;;;;;10.72;92.50;101553.53;5041099;28;19920;-59
2022/09/25 07:45:03;;;;;;;;;;;;;;;10.79;92.53;101562.53;5052202;28;19912;-58
2022/09/25 07:47:29;;;;;;;;;;;;;;;10.85;92.66;101560.09;5048462;28;19932;-58
2022/09/25 07:49:54;;;;;;;;;;;;;;;10.94;92.24;101563.63;5047545;28;19956;-58
2022/09/25 07:52:19;;;;;;;;;;;;;;;11.04;92.32;101571.53;5046163;28;19917;-59
2022/09/25 07:54:44;;;;;;;;;;;;;;;11.13;92.39;101573.25;5046449;28;19932;-59
2022/09/25 07:57:09;;;;;;;;;;;;;;;11.24;92.65;101565.00;5044993;28;19967;-58
2022/09/25 07:59:35;;;;;;;;;;;;;;;11.35;92.36;101566.56;5042945;28;19912;-59
2022/09/25 08:02:01;;;;;;;;;;;;;;;11.42;92.25;101560.44;5046581;28;20275;-59
2022/09/25 08:04:27;;;;;;;;;;;;;;;11.52;92.70;101556.84;5052117;28;19983;-59
2022/09/25 08:06:52;;;;;;;;;;;;;;;11.57;92.04;101560.72;5045328;28;19916;-59
2022/09/25 08:09:17;;;;;;;;;;;;;;;11.65;92.25;101558.06;5043437;28;19921;-59
2022/09/25 08:11:42;;;;;;;;;;;;;;;11.74;92.26;101557.09;5044931;28;20042;-58
2022/09/25 08:14:09;;;;;;;;;;;;;;;11.79;92.31;101561.97;5049710;28;20444;-59
2022/09/25 08:16:34;;;;;;;;;;;;;;;11.85;92.10;101558.66;5048790;28;19920;-59
2022/09/25 08:18:59;;;;;;;;;;;;;;;11.91;91.95;101557.22;5045327;28;19912;-58
2022/09/25 08:21:25;;;;;;;;;;;;;;;11.97;91.84;101561.88;5049426;28;19912;-57
2022/09/25 08:23:51;;;;;;;;;;;;;;;12.03;91.62;101554.06;5055117;28;20388;-59
2022/09/25 08:26:16;;;;;;;;;;;;;;;12.09;91.77;101553.41;5045717;28;19925;-57
2022/09/25 08:28:42;;;;;;;;;;;;;;;12.16;91.50;101560.78;5052230;28;19927;-59
2022/09/25 08:31:10;;;;;;;;;;;;;;;12.23;91.50;101557.28;5039913;28;21267;-59
2022/09/25 08:33:36;;;;;;;;;;;;;;;12.29;91.50;101551.28;5046869;28;19923;-58
2022/09/25 08:36:03;;;;;;;;;;;;;;;12.36;91.46;101556.78;5050479;28;19913;-59
2022/09/25 08:38:30;;;;;;;;;;;;;;;12.42;91.11;101556.13;5046218;28;20388;-58
2022/09/25 08:41:09;;;;;;;;;;;;;;;12.49;91.18;101551.81;5040844;28;20265;-59
2022/09/25 08:43:36;;;;;;;;;;;;;;;12.55;90.97;101551.16;5037372;28;20281;-57
2022/09/25 08:49:04;;;;;;;;;;;;;;;12.68;90.96;101551.47;5045570;28;19936;-59
2022/09/25 08:51:35;;;;;;;;;;;;;;;12.75;90.47;101558.84;5044029;28;19925;-58
2022/09/25 08:54:02;;;;;;;;;;;;;;;12.83;90.32;101550.81;5048733;28;20376;-59
2022/09/25 08:56:28;;;;;;;;;;;;;;;12.89;90.41;101556.31;5042899;28;19917;-59
2022/09/25 08:59:01;;;;;;;;;;;;;;;12.97;90.10;101558.97;5051331;28;19966;-56
2022/09/25 09:01:41;;;;;;;;;;;;;;;13.06;90.00;101556.31;5050047;28;19912;-59
2022/09/25 09:04:18;;;;;;;;;;;;;;;13.14;90.01;101561.63;5040238;28;19921;-59
2022/09/25 09:06:45;;;;;;;;;;;;;;;13.21;89.73;101555.44;5040430;28;19913;-58
2022/09/25 09:09:14;;;;;;;;;;;;;;;13.30;89.46;101561.63;5044501;28;19992;-59
2022/09/25 09:11:46;;;;;;;;;;;;;;;13.39;89.30;101562.44;5046231;28;19917;-59
2022/09/25 09:14:17;;;;;;;;;;;;;;;13.46;89.20;101560.72;5047171;28;19919;-57
2022/09/25 09:16:44;;;;;;;;;;;;;;;13.56;88.59;101561.34;5049954;28;19916;-59
2022/09/25 09:19:10;;;;;;;;;;;;;;;13.66;88.43;101556.66;5048699;28;19923;-58
2022/09/25 09:21:37;;;;;;;;;;;;;;;13.76;88.17;101549.25;5045410;28;20106;-57
2022/09/25 09:24:06;;;;;;;;;;;;;;;13.91;88.21;101549.38;5049025;28;19920;-59
2022/09/25 09:26:42;;;;;;;;;;;;;;;14.06;88.09;101550.28;5047378;28;19921;-58
2022/09/25 09:29:26;;;;;;;;;;;;;;;14.17;87.90;101547.22;5047133;28;20316;-58
2022/09/25 09:32:00;;;;;;;;;;;;;;;14.32;87.65;101535.75;5042709;28;19925;-60
2022/09/25 09:34:44;;;;;;;;;;;;;;;14.45;87.15;101536.00;5040856;28;19971;-60
2022/09/25 09:37:21;;;;;;;;;;;;;;;14.57;86.55;101542.63;5039539;28;20320;-59
2022/09/25 09:39:53;;;;;;;;;;;;;;;14.66;86.06;101538.84;5044275;28;19923;-59
2022/09/25 09:42:26;;;;;;;;;;;;;;;14.78;85.72;101544.63;5041933;28;19917;-60
2022/09/25 09:45:15;;;;;;;;;;;;;;;14.87;85.08;101546.19;5043246;28;19923;-57
2022/09/25 09:47:47;;;;;;;;;;;;;;;14.99;83.54;101533.19;5012793;28;19924;-60
2022/09/25 09:50:20;;;;;;;;;;;;;;;15.12;82.97;101544.13;5044727;28;20350;-59
2022/09/25 09:52:47;;;;;;;;;;;;;;;15.23;81.79;101538.31;5042810;28;20020;-60
2022/09/25 09:55:12;;;;;;;;;;;;;;;15.37;80.80;101533.97;5050008;28;20384;-58
2022/09/25 09:57:43;;;;;;;;;;;;;;;15.49;80.20;101525.28;5048884;28;20427;-59
2022/09/25 10:00:12;;;;;;;;;;;;;;;15.60;79.04;101532.03;5038829;28;20004;-59
2022/09/25 10:03:13;;;;;;;;;;;;;;;15.72;78.16;101527.88;5047310;28;19963;-58
2022/09/25 10:05:41;;;;;;;;;;;;;;;15.90;77.95;101530.16;4985567;28;20407;-60
2022/09/25 10:08:10;;;;;;;;;;;;;;;16.01;77.52;101534.19;5030917;28;20342;-59
2022/09/25 10:10:36;;;;;;;;;;;;;;;16.11;76.51;101524.81;5041623;28;19925;-60
2022/09/25 10:13:05;;;;;;;;;;;;;;;16.20;75.39;101527.41;5042327;28;19916;-60
2022/09/25 10:15:37;;;;;;;;;;;;;;;16.29;74.45;101524.38;5042618;28;20375;-59
2022/09/25 10:18:02;;;;;;;;;;;;;;;16.40;74.56;101528.41;5040431;28;19921;-59
2022/09/25 10:20:45;;;;;;;;;;;;;;;16.46;74.26;101529.47;5048299;28;20503;-59
2022/09/25 10:23:20;;;;;;;;;;;;;;;16.48;73.87;101527.44;5040944;28;19947;-60
2022/09/25 10:25:45;;;;;;;;;;;;;;;16.50;73.79;101533.47;5041719;28;20443;-60
2022/09/25 10:28:31;;;;;;;;;;;;;;;16.54;73.68;101524.00;5041442;28;19929;-59
2022/09/25 10:30:57;;;;;;;;;;;;;;;16.60;73.36;101517.88;5037229;28;20377;-59
2022/09/25 10:33:27;;;;;;;;;;;;;;;16.66;72.34;101525.16;5035647;28;19944;-59
2022/09/25 10:35:53;;;;;;;;;;;;;;;16.72;72.39;101527.06;5042553;28;19920;-58
2022/09/25 10:38:38;;;;;;;;;;;;;;;16.70;72.21;101523.75;5044445;28;19913;-60
2022/09/25 10:41:07;;;;;;;;;;;;;;;16.59;70.79;101527.75;5049590;28;19924;-59
2022/09/25 10:43:33;;;;;;;;;;;;;;;16.50;70.14;101520.88;5040334;28;19986;-60
2022/09/25 10:46:12;;;;;;;;;;;;;;;16.52;70.13;101518.84;5043466;28;20372;-60
2022/09/25 10:51:22;;;;;;;;;;;;;;;16.59;69.64;101522.41;5048625;28;19920;-60
2022/09/25 10:53:48;;;;;;;;;;;;;;;16.63;69.16;101520.16;5049821;28;19921;-60
2022/09/25 10:56:16;;;;;;;;;;;;;;;16.63;68.75;101522.84;5047736;28;20008;-60
2022/09/25 10:58:46;;;;;;;;;;;;;;;16.66;68.23;101517.13;5044194;28;20384;-59
2022/09/25 11:01:13;;;;;;;;;;;;;;;16.74;67.54;101514.28;5044323;28;20460;-60
2022/09/25 11:03:44;;;;;;;;;;;;;;;16.77;67.39;101513.91;5039082;28;19924;-60
2022/09/25 11:06:19;;;;;;;;;;;;;;;16.76;66.51;101517.59;5033697;28;19967;-60
2022/09/25 11:08:45;;;;;;;;;;;;;;;16.76;66.66;101508.72;5045308;28;20049;-58
2022/09/25 11:11:12;;;;;;;;;;;;;;;16.80;67.24;101507.34;5047061;28;19916;-58
2022/09/25 11:13:53;;;;;;;;;;;;;;;16.85;66.75;101508.41;5047771;28;19916;-60
2022/09/25 11:16:18;;;;;;;;;;;;;;;16.91;66.69;101499.56;5048777;28;19917;-59
2022/09/25 11:19:02;;;;;;;;;;;;;;;16.97;66.25;101503.31;5046486;28;19923;-58
2022/09/25 11:21:59;;;;;;;;;;;;;;;17.01;66.11;101504.56;5036407;28;20007;-59
2022/09/25 11:24:31;;;;;;;;;;;;;;;17.13;65.36;101504.88;5015557;28;19917;-59
2022/09/25 11:27:09;;;;;;;;;;;;;;;17.24;65.22;101505.13;5046388;28;19913;-59
2022/09/25 11:29:34;;;;;;;;;;;;;;;17.19;63.59;101504.91;5043151;28;19917;-60
2022/09/25 11:32:05;;;;;;;;;;;;;;;17.09;62.83;101512.50;5049685;28;19921;-59
2022/09/25 11:34:50;;;;;;;;;;;;;;;17.08;63.34;101496.59;5038403;28;19924;-59
2022/09/25 11:37:34;;;;;;;;;;;;;;;17.19;63.55;101501.38;5045572;28;20372;-59
2022/09/25 11:43:10;;;;;;;;;;;;;;;17.50;63.46;101495.56;5039838;28;19990;-59
2022/09/25 11:45:47;;;;;;;;;;;;;;;17.65;61.94;101486.34;5046599;28;20014;-59
2022/09/25 11:48:21;;;;;;;;;;;;;;;17.77;60.71;101478.53;5039631;28;20419;-59
2022/09/25 11:50:52;;;;;;;;;;;;;;;17.85;61.22;101482.91;5048758;28;20004;-59
2022/09/25 11:53:18;;;;;;;;;;;;;;;17.86;60.85;101487.25;5044179;28;19928;-60
2022/09/25 11:55:44;;;;;;;;;;;;;;;17.85;61.21;101482.91;5046082;28;19932;-59
2022/09/25 11:58:31;;;;;;;;;;;;;;;17.85;61.64;101474.84;5045340;28;19912;-59
2022/09/25 12:00:59;;;;;;;;;;;;;;;17.77;61.14;101469.66;5043926;28;19938;-60
2022/09/25 12:03:50;;;;;;;;;;;;;;;17.71;60.92;101468.59;5043366;28;19917;-60
2022/09/25 12:06:15;;;;;;;;;;;;;;;17.61;60.85;101463.56;5056951;28;19919;-59
2022/09/25 12:08:53;;;;;;;;;;;;;;;17.59;60.92;101470.16;5052524;28;19916;-59
2022/09/25 12:11:26;;;;;;;;;;;;;;;17.54;61.31;101468.09;5041853;28;19925;-60
2022/09/25 12:14:09;;;;;;;;;;;;;;;17.41;60.91;101469.91;5045942;28;19960;-59
2022/09/25 12:16:40;;;;;;;;;;;;;;;17.24;61.12;101466.72;5046529;28;19916;-59
2022/09/25 12:19:22;;;;;;;;;;;;;;;17.08;61.00;101472.44;5045604;28;19917;-59
2022/09/25 12:22:07;;;;;;;;;;;;;;;16.94;61.34;101466.13;5048714;28;19913;-59
2022/09/25 12:24:33;;;;;;;;;;;;;;;16.84;61.49;101463.81;5044399;28;19913;-59
2022/09/25 12:27:04;;;;;;;;;;;;;;;16.76;61.65;101458.59;5046623;28;19932;-58
2022/09/25 12:29:48;;;;;;;;;;;;;;;16.69;61.84;101463.91;5041495;28;20498;-59
2022/09/25 12:32:29;;;;;;;;;;;;;;;16.65;62.37;101467.16;5047949;28;19913;-60
2022/09/25 12:35:13;;;;;;;;;;;;;;;16.63;62.83;101461.16;5050156;28;20331;-59
2022/09/25 12:37:50;;;;;;;;;;;;;;;16.62;62.88;101451.44;5050923;28;20351;-59
2022/09/25 12:40:15;;;;;;;;;;;;;;;16.62;63.11;101454.13;5047992;28;20303;-60
2022/09/25 12:42:44;;;;;;;;;;;;;;;16.62;63.59;101446.91;5043976;28;19913;-60
2022/09/25 12:45:15;;;;;;;;;;;;;;;16.69;63.55;101441.63;5050417;28;20041;-59
2022/09/25 12:47:47;;;;;;;;;;;;;;;16.76;63.55;101437.13;5050713;28;20295;-59
2022/09/25 12:50:15;;;;;;;;;;;;;;;16.84;63.54;101439.69;5050820;28;19958;-56
2022/09/25 12:52:53;;;;;;;;;;;;;;;16.96;63.23;101430.03;5044569;28;20454;-59
2022/09/25 12:55:25;;;;;;;;;;;;;;;17.11;63.36;101432.59;5048194;28;20483;-57
2022/09/25 12:57:50;;;;;;;;;;;;;;;17.26;63.33;101429.78;5043657;28;19913;-60
2022/09/25 13:00:24;;;;;;;;;;;;;;;17.39;63.36;101426.31;5043695;28;19920;-60
2022/09/25 13:02:56;;;;;;;;;;;;;;;17.52;62.48;101426.34;5054399;28;19924;-59
2022/09/25 13:05:25;;;;;;;;;;;;;;;17.59;61.97;101419.97;5042075;28;19923;-60
2022/09/25 13:07:58;;;;;;;;;;;;;;;17.73;61.60;101417.38;5041773;28;19997;-59
2022/09/25 13:10:30;;;;;;;;;;;;;;;17.87;60.52;101414.47;5055185;28;19962;-59